sensor_id;sensor_type;location;lat;lon;timestamp;pressure;altitude;pressure_sealevel;temperature;humidity
41040;BME280;48586;50.122;18.972;2023-01-29T00:01:54;99494.84;;;-0.14;55.10
41040;BME280;48586;50.122;18.972;2023-01-29T00:03:59;99489.06;;;-0.18;54.85
41040;BME280;48586;50.122;18.972;2023-01-29T00:06:06;99498.88;;;-0.20;55.08
41040;BME280;48586;50.122;18.972;2023-01-29T00:08:13;99498.31;;;-0.23;55.38
41040;BME280;48586;50.122;18.972;2023-01-29T00:10:18;99500.94;;;-0.33;55.68
41040;BME280;48586;50.122;18.972;2023-01-29T00:12:25;99502.44;;;-0.40;56.36
41040;BME280;48586;50.122;18.972;2023-01-29T00:14:30;99494.59;;;-0.50;57.16
41040;BME280;48586;50.122;18.972;2023-01-29T00:16:35;99497.31;;;-0.61;57.24
41040;BME280;48586;50.122;18.972;2023-01-29T00:18:40;99505.03;;;-0.69;57.69
41040;BME280;48586;50.122;18.972;2023-01-29T00:20:45;99497.72;;;-0.75;57.69
41040;BME280;48586;50.122;18.972;2023-01-29T00:22:49;99503.63;;;-0.83;58.00
41040;BME280;48586;50.122;18.972;2023-01-29T00:24:55;99512.84;;;-0.89;57.99
41040;BME280;48586;50.122;18.972;2023-01-29T00:27:00;99515.16;;;-0.95;58.30
41040;BME280;48586;50.122;18.972;2023-01-29T00:29:07;99512.78;;;-1.08;58.56
41040;BME280;48586;50.122;18.972;2023-01-29T00:31:15;99520.19;;;-1.13;58.66
41040;BME280;48586;50.122;18.972;2023-01-29T00:33:21;99522.56;;;-1.10;58.69
41040;BME280;48586;50.122;18.972;2023-01-29T00:35:26;99515.28;;;-1.07;58.73
41040;BME280;48586;50.122;18.972;2023-01-29T00:37:31;99521.75;;;-1.01;58.59
41040;BME280;48586;50.122;18.972;2023-01-29T00:39:37;99517.91;;;-0.97;58.66
41040;BME280;48586;50.122;18.972;2023-01-29T00:41:41;99521.59;;;-0.99;58.68
41040;BME280;48586;50.122;18.972;2023-01-29T00:43:59;99525.75;;;-0.97;58.37
41040;BME280;48586;50.122;18.972;2023-01-29T00:46:21;99525.63;;;-0.95;57.87
41040;BME280;48586;50.122;18.972;2023-01-29T00:48:25;99524.94;;;-0.97;58.17
41040;BME280;48586;50.122;18.972;2023-01-29T00:50:31;99525.72;;;-1.07;57.87
41040;BME280;48586;50.122;18.972;2023-01-29T00:52:36;99536.13;;;-1.16;58.50
41040;BME280;48586;50.122;18.972;2023-01-29T00:54:42;99530.75;;;-1.24;58.43
41040;BME280;48586;50.122;18.972;2023-01-29T00:56:46;99533.88;;;-1.31;58.88
41040;BME280;48586;50.122;18.972;2023-01-29T00:58:52;99534.13;;;-1.34;59.47
41040;BME280;48586;50.122;18.972;2023-01-29T01:00:57;99532.47;;;-1.35;59.40
41040;BME280;48586;50.122;18.972;2023-01-29T01:03:05;99527.22;;;-1.44;59.42
41040;BME280;48586;50.122;18.972;2023-01-29T01:05:08;99535.69;;;-1.52;59.58
41040;BME280;48586;50.122;18.972;2023-01-29T01:07:14;99527.84;;;-1.52;60.25
41040;BME280;48586;50.122;18.972;2023-01-29T01:09:18;99538.31;;;-1.52;60.05
41040;BME280;48586;50.122;18.972;2023-01-29T01:11:36;99534.81;;;-1.62;60.02
41040;BME280;48586;50.122;18.972;2023-01-29T01:13:41;99537.69;;;-1.65;59.69
41040;BME280;48586;50.122;18.972;2023-01-29T01:15:46;99545.78;;;-1.68;59.96
41040;BME280;48586;50.122;18.972;2023-01-29T01:17:52;99545.09;;;-1.70;60.59
41040;BME280;48586;50.122;18.972;2023-01-29T01:20:00;99552.09;;;-1.71;60.64
41040;BME280;48586;50.122;18.972;2023-01-29T01:22:04;99556.03;;;-1.76;60.59
41040;BME280;48586;50.122;18.972;2023-01-29T01:24:10;99550.38;;;-1.82;60.39
41040;BME280;48586;50.122;18.972;2023-01-29T01:26:14;99552.28;;;-1.84;60.80
41040;BME280;48586;50.122;18.972;2023-01-29T01:28:18;99554.91;;;-1.84;60.96
41040;BME280;48586;50.122;18.972;2023-01-29T01:30:25;99554.19;;;-1.86;60.86
41040;BME280;48586;50.122;18.972;2023-01-29T01:32:30;99546.34;;;-1.86;60.57
41040;BME280;48586;50.122;18.972;2023-01-29T01:34:35;99540.81;;;-1.92;59.98
41040;BME280;48586;50.122;18.972;2023-01-29T01:36:43;99537.56;;;-2.06;59.91
41040;BME280;48586;50.122;18.972;2023-01-29T01:38:48;99538.88;;;-2.11;59.67
41040;BME280;48586;50.122;18.972;2023-01-29T01:40:52;99542.00;;;-2.17;59.97
41040;BME280;48586;50.122;18.972;2023-01-29T01:42:59;99539.75;;;-2.22;59.88
41040;BME280;48586;50.122;18.972;2023-01-29T01:45:07;99535.50;;;-2.23;60.05
41040;BME280;48586;50.122;18.972;2023-01-29T01:47:25;99538.22;;;-2.24;59.88
41040;BME280;48586;50.122;18.972;2023-01-29T01:49:34;99535.59;;;-2.24;60.20
41040;BME280;48586;50.122;18.972;2023-01-29T01:51:45;99531.22;;;-2.24;60.13
41040;BME280;48586;50.122;18.972;2023-01-29T01:53:57;99536.31;;;-2.22;59.91
41040;BME280;48586;50.122;18.972;2023-01-29T01:56:13;99546.88;;;-2.24;60.13
41040;BME280;48586;50.122;18.972;2023-01-29T01:58:26;99537.53;;;-2.26;59.77
41040;BME280;48586;50.122;18.972;2023-01-29T02:00:35;99524.47;;;-2.26;59.56
41040;BME280;48586;50.122;18.972;2023-01-29T02:02:43;99526.94;;;-2.25;59.86
41040;BME280;48586;50.122;18.972;2023-01-29T02:05:01;99521.63;;;-2.23;59.59
41040;BME280;48586;50.122;18.972;2023-01-29T02:07:21;99522.19;;;-2.20;59.27
41040;BME280;48586;50.122;18.972;2023-01-29T02:09:43;99518.38;;;-2.16;59.55
41040;BME280;48586;50.122;18.972;2023-01-29T02:11:51;99519.09;;;-2.14;59.26
41040;BME280;48586;50.122;18.972;2023-01-29T02:13:55;99511.38;;;-2.15;59.10
41040;BME280;48586;50.122;18.972;2023-01-29T02:16:01;99502.59;;;-2.14;58.97
41040;BME280;48586;50.122;18.972;2023-01-29T02:18:08;99502.31;;;-2.11;58.94
41040;BME280;48586;50.122;18.972;2023-01-29T02:20:18;99512.47;;;-2.18;58.77
41040;BME280;48586;50.122;18.972;2023-01-29T02:25:49;99512.03;;;-2.34;58.74
41040;BME280;48586;50.122;18.972;2023-01-29T02:28:31;99503.91;;;-2.41;58.04
41040;BME280;48586;50.122;18.972;2023-01-29T02:30:47;99502.59;;;-2.46;58.09
41040;BME280;48586;50.122;18.972;2023-01-29T02:33:07;99501.09;;;-2.49;58.11
41040;BME280;48586;50.122;18.972;2023-01-29T02:35:29;99498.34;;;-2.47;58.12
41040;BME280;48586;50.122;18.972;2023-01-29T02:37:45;99492.16;;;-2.46;57.73
41040;BME280;48586;50.122;18.972;2023-01-29T02:40:07;99492.31;;;-2.59;57.35
41040;BME280;48586;50.122;18.972;2023-01-29T02:42:26;99492.13;;;-2.67;57.11
41040;BME280;48586;50.122;18.972;2023-01-29T02:44:47;99491.56;;;-2.71;57.91
41040;BME280;48586;50.122;18.972;2023-01-29T02:47:03;99483.84;;;-2.72;58.24
41040;BME280;48586;50.122;18.972;2023-01-29T02:49:21;99490.00;;;-2.73;58.47
41040;BME280;48586;50.122;18.972;2023-01-29T02:51:37;99476.50;;;-2.78;58.02
41040;BME280;48586;50.122;18.972;2023-01-29T02:53:59;99497.97;;;-2.86;56.95
41040;BME280;48586;50.122;18.972;2023-01-29T02:56:12;99516.72;;;-2.92;56.66
41040;BME280;48586;50.122;18.972;2023-01-29T02:58:26;99510.78;;;-2.94;56.90
41040;BME280;48586;50.122;18.972;2023-01-29T03:00:40;99519.44;;;-2.94;56.89
41040;BME280;48586;50.122;18.972;2023-01-29T03:02:55;99519.91;;;-2.89;57.17
41040;BME280;48586;50.122;18.972;2023-01-29T03:05:10;99518.50;;;-2.93;55.99
41040;BME280;48586;50.122;18.972;2023-01-29T03:07:25;99521.13;;;-2.93;56.06
41040;BME280;48586;50.122;18.972;2023-01-29T03:10:02;99526.88;;;-2.89;56.22
41040;BME280;48586;50.122;18.972;2023-01-29T03:12:21;99526.53;;;-2.85;55.63
41040;BME280;48586;50.122;18.972;2023-01-29T03:14:39;99521.44;;;-2.86;55.15
41040;BME280;48586;50.122;18.972;2023-01-29T03:17:02;99523.00;;;-2.84;54.82
41040;BME280;48586;50.122;18.972;2023-01-29T03:19:15;99517.28;;;-2.89;54.56
41040;BME280;48586;50.122;18.972;2023-01-29T03:21:29;99525.97;;;-2.99;53.73
41040;BME280;48586;50.122;18.972;2023-01-29T03:23:54;99536.03;;;-2.95;54.19
41040;BME280;48586;50.122;18.972;2023-01-29T03:26:16;99538.63;;;-2.95;53.38
41040;BME280;48586;50.122;18.972;2023-01-29T03:28:38;99544.09;;;-2.98;52.95
41040;BME280;48586;50.122;18.972;2023-01-29T03:31:03;99546.00;;;-3.11;52.49
41040;BME280;48586;50.122;18.972;2023-01-29T03:33:38;99543.38;;;-3.11;52.63
41040;BME280;48586;50.122;18.972;2023-01-29T03:35:52;99545.91;;;-3.10;53.19
41040;BME280;48586;50.122;18.972;2023-01-29T03:38:06;99540.06;;;-3.02;52.99
41040;BME280;48586;50.122;18.972;2023-01-29T03:40:14;99541.13;;;-2.93;52.70
41040;BME280;48586;50.122;18.972;2023-01-29T03:42:25;99536.97;;;-2.85;52.13
41040;BME280;48586;50.122;18.972;2023-01-29T03:44:51;99539.44;;;-2.72;53.06
41040;BME280;48586;50.122;18.972;2023-01-29T03:47:15;99532.19;;;-2.57;52.07
41040;BME280;48586;50.122;18.972;2023-01-29T03:49:37;99530.94;;;-2.42;52.04
41040;BME280;48586;50.122;18.972;2023-01-29T03:52:00;99530.19;;;-2.33;51.68
41040;BME280;48586;50.122;18.972;2023-01-29T03:54:17;99525.88;;;-2.22;51.73
41040;BME280;48586;50.122;18.972;2023-01-29T03:56:43;99524.56;;;-2.17;50.93
41040;BME280;48586;50.122;18.972;2023-01-29T03:59:03;99518.63;;;-2.19;50.52
41040;BME280;48586;50.122;18.972;2023-01-29T04:01:40;99513.28;;;-2.17;50.96
41040;BME280;48586;50.122;18.972;2023-01-29T04:03:54;99509.34;;;-2.12;51.44
41040;BME280;48586;50.122;18.972;2023-01-29T04:06:15;99515.34;;;-2.00;51.17
41040;BME280;48586;50.122;18.972;2023-01-29T04:08:37;99513.59;;;-1.90;51.54
41040;BME280;48586;50.122;18.972;2023-01-29T04:10:53;99508.97;;;-1.86;50.63
41040;BME280;48586;50.122;18.972;2023-01-29T04:13:06;99506.78;;;-1.81;50.67
41040;BME280;48586;50.122;18.972;2023-01-29T04:15:18;99503.88;;;-1.88;50.09
41040;BME280;48586;50.122;18.972;2023-01-29T04:17:30;99508.47;;;-2.01;50.01
41040;BME280;48586;50.122;18.972;2023-01-29T04:19:55;99505.06;;;-2.13;50.34
41040;BME280;48586;50.122;18.972;2023-01-29T04:22:06;99503.22;;;-2.22;50.42
41040;BME280;48586;50.122;18.972;2023-01-29T04:24:16;99495.41;;;-2.22;50.91
41040;BME280;48586;50.122;18.972;2023-01-29T04:26:38;99492.25;;;-2.16;50.54
41040;BME280;48586;50.122;18.972;2023-01-29T04:29:08;99493.28;;;-2.07;50.72
41040;BME280;48586;50.122;18.972;2023-01-29T04:31:34;99482.59;;;-2.04;50.54
41040;BME280;48586;50.122;18.972;2023-01-29T04:33:57;99471.66;;;-1.98;50.64
41040;BME280;48586;50.122;18.972;2023-01-29T04:36:25;99467.56;;;-1.91;49.64
41040;BME280;48586;50.122;18.972;2023-01-29T04:38:51;99458.66;;;-1.88;49.73
41040;BME280;48586;50.122;18.972;2023-01-29T04:41:16;99458.38;;;-1.85;50.22
41040;BME280;48586;50.122;18.972;2023-01-29T04:43:34;99453.53;;;-1.90;49.50
41040;BME280;48586;50.122;18.972;2023-01-29T04:45:58;99439.56;;;-1.89;50.21
41040;BME280;48586;50.122;18.972;2023-01-29T04:48:20;99439.56;;;-1.89;49.76
41040;BME280;48586;50.122;18.972;2023-01-29T04:50:35;99434.44;;;-1.90;50.17
41040;BME280;48586;50.122;18.972;2023-01-29T04:52:48;99438.84;;;-1.91;50.22
41040;BME280;48586;50.122;18.972;2023-01-29T04:55:07;99436.94;;;-1.89;50.44
41040;BME280;48586;50.122;18.972;2023-01-29T04:57:27;99435.72;;;-1.85;50.46
41040;BME280;48586;50.122;18.972;2023-01-29T04:59:44;99437.38;;;-1.84;49.91
41040;BME280;48586;50.122;18.972;2023-01-29T05:01:51;99435.41;;;-1.91;49.97
41040;BME280;48586;50.122;18.972;2023-01-29T05:03:59;99430.81;;;-1.99;50.26
41040;BME280;48586;50.122;18.972;2023-01-29T05:06:10;99433.97;;;-2.05;49.98
41040;BME280;48586;50.122;18.972;2023-01-29T05:08:20;99437.44;;;-2.16;49.95
41040;BME280;48586;50.122;18.972;2023-01-29T05:10:30;99433.44;;;-2.20;50.46
41040;BME280;48586;50.122;18.972;2023-01-29T05:12:36;99443.06;;;-2.20;50.89
41040;BME280;48586;50.122;18.972;2023-01-29T05:14:44;99437.25;;;-2.24;50.51
41040;BME280;48586;50.122;18.972;2023-01-29T05:16:55;99452.09;;;-2.24;51.23
41040;BME280;48586;50.122;18.972;2023-01-29T05:19:02;99437.84;;;-2.20;51.41
41040;BME280;48586;50.122;18.972;2023-01-29T05:21:08;99449.44;;;-2.13;51.36
41040;BME280;48586;50.122;18.972;2023-01-29T05:23:15;99446.97;;;-2.15;50.33
41040;BME280;48586;50.122;18.972;2023-01-29T05:25:24;99443.78;;;-2.18;50.92
41040;BME280;48586;50.122;18.972;2023-01-29T05:27:34;99458.59;;;-2.19;51.32
41040;BME280;48586;50.122;18.972;2023-01-29T05:29:51;99449.81;;;-2.18;51.02
41040;BME280;48586;50.122;18.972;2023-01-29T05:31:58;99454.91;;;-2.16;51.45
41040;BME280;48586;50.122;18.972;2023-01-29T05:34:02;99458.59;;;-2.19;50.83
41040;BME280;48586;50.122;18.972;2023-01-29T05:36:08;99459.44;;;-2.18;51.45
41040;BME280;48586;50.122;18.972;2023-01-29T05:38:14;99457.94;;;-2.11;51.32
41040;BME280;48586;50.122;18.972;2023-01-29T05:40:18;99464.19;;;-2.02;51.45
41040;BME280;48586;50.122;18.972;2023-01-29T05:42:22;99458.97;;;-2.02;51.17
41040;BME280;48586;50.122;18.972;2023-01-29T05:44:30;99458.13;;;-2.03;51.29
41040;BME280;48586;50.122;18.972;2023-01-29T05:46:34;99453.63;;;-2.01;51.45
41040;BME280;48586;50.122;18.972;2023-01-29T05:48:38;99444.84;;;-2.00;51.00
41040;BME280;48586;50.122;18.972;2023-01-29T05:50:42;99443.19;;;-2.01;51.41
41040;BME280;48586;50.122;18.972;2023-01-29T05:52:47;99450.31;;;-2.03;51.18
41040;BME280;48586;50.122;18.972;2023-01-29T05:54:50;99447.84;;;-2.05;51.14
41040;BME280;48586;50.122;18.972;2023-01-29T05:56:55;99457.59;;;-2.07;51.31
41040;BME280;48586;50.122;18.972;2023-01-29T05:58:59;99460.06;;;-2.05;51.36
41040;BME280;48586;50.122;18.972;2023-01-29T06:01:14;99460.75;;;-2.03;50.91
41040;BME280;48586;50.122;18.972;2023-01-29T06:03:20;99456.75;;;-2.07;50.63
41040;BME280;48586;50.122;18.972;2023-01-29T06:05:24;99452.47;;;-2.08;50.95
41040;BME280;48586;50.122;18.972;2023-01-29T06:07:28;99464.94;;;-2.12;50.88
41040;BME280;48586;50.122;18.972;2023-01-29T06:09:33;99460.00;;;-2.15;50.97
41040;BME280;48586;50.122;18.972;2023-01-29T06:11:37;99462.88;;;-2.18;50.91
41040;BME280;48586;50.122;18.972;2023-01-29T06:13:42;99470.34;;;-2.24;50.58
41040;BME280;48586;50.122;18.972;2023-01-29T06:15:48;99468.84;;;-2.27;50.94
41040;BME280;48586;50.122;18.972;2023-01-29T06:17:55;99473.09;;;-2.26;51.15
41040;BME280;48586;50.122;18.972;2023-01-29T06:20:02;99465.41;;;-2.27;51.10
41040;BME280;48586;50.122;18.972;2023-01-29T06:22:08;99467.88;;;-2.26;51.69
41040;BME280;48586;50.122;18.972;2023-01-29T06:24:12;99464.91;;;-2.21;51.54
41040;BME280;48586;50.122;18.972;2023-01-29T06:26:16;99473.16;;;-2.16;51.65
41040;BME280;48586;50.122;18.972;2023-01-29T06:28:21;99476.22;;;-2.11;51.89
41040;BME280;48586;50.122;18.972;2023-01-29T06:30:25;99484.63;;;-2.08;51.77
41040;BME280;48586;50.122;18.972;2023-01-29T06:32:29;99486.41;;;-2.08;51.17
41040;BME280;48586;50.122;18.972;2023-01-29T06:34:36;99483.69;;;-2.07;51.48
41040;BME280;48586;50.122;18.972;2023-01-29T06:36:41;99478.84;;;-2.11;51.22
41040;BME280;48586;50.122;18.972;2023-01-29T06:38:45;99478.97;;;-2.13;51.42
41040;BME280;48586;50.122;18.972;2023-01-29T06:40:51;99487.75;;;-2.14;51.55
41040;BME280;48586;50.122;18.972;2023-01-29T06:42:55;99481.00;;;-2.16;51.51
41040;BME280;48586;50.122;18.972;2023-01-29T06:44:59;99484.81;;;-2.20;51.43
41040;BME280;48586;50.122;18.972;2023-01-29T06:47:04;99484.94;;;-2.22;51.69
41040;BME280;48586;50.122;18.972;2023-01-29T06:49:08;99482.91;;;-2.18;51.70
41040;BME280;48586;50.122;18.972;2023-01-29T06:51:15;99480.31;;;-2.18;52.00
41040;BME280;48586;50.122;18.972;2023-01-29T06:53:20;99481.38;;;-2.21;51.23
41040;BME280;48586;50.122;18.972;2023-01-29T06:55:24;99473.69;;;-2.22;51.88
41040;BME280;48586;50.122;18.972;2023-01-29T06:57:28;99474.66;;;-2.23;51.67
41040;BME280;48586;50.122;18.972;2023-01-29T06:59:33;99470.69;;;-2.18;52.02
41040;BME280;48586;50.122;18.972;2023-01-29T07:01:38;99473.06;;;-2.15;52.06
41040;BME280;48586;50.122;18.972;2023-01-29T07:03:47;99476.22;;;-2.11;51.60
41040;BME280;48586;50.122;18.972;2023-01-29T07:05:52;99475.28;;;-2.10;51.76
41040;BME280;48586;50.122;18.972;2023-01-29T07:07:59;99469.63;;;-2.15;51.51
41040;BME280;48586;50.122;18.972;2023-01-29T07:10:04;99472.88;;;-2.23;51.28
41040;BME280;48586;50.122;18.972;2023-01-29T07:12:10;99479.00;;;-2.24;52.08
41040;BME280;48586;50.122;18.972;2023-01-29T07:14:14;99489.34;;;-2.22;51.77
41040;BME280;48586;50.122;18.972;2023-01-29T07:16:18;99489.59;;;-2.25;51.62
41040;BME280;48586;50.122;18.972;2023-01-29T07:18:22;99481.75;;;-2.25;52.08
41040;BME280;48586;50.122;18.972;2023-01-29T07:20:28;99488.31;;;-2.31;51.48
41040;BME280;48586;50.122;18.972;2023-01-29T07:22:33;99485.72;;;-2.31;52.04
41040;BME280;48586;50.122;18.972;2023-01-29T07:24:40;99483.09;;;-2.31;52.09
41040;BME280;48586;50.122;18.972;2023-01-29T07:26:44;99488.75;;;-2.26;52.60
41040;BME280;48586;50.122;18.972;2023-01-29T07:28:48;99488.53;;;-2.23;52.36
41040;BME280;48586;50.122;18.972;2023-01-29T07:30:55;99490.16;;;-2.22;52.62
41040;BME280;48586;50.122;18.972;2023-01-29T07:33:01;99496.94;;;-2.19;52.57
41040;BME280;48586;50.122;18.972;2023-01-29T07:35:06;99498.81;;;-2.21;52.52
41040;BME280;48586;50.122;18.972;2023-01-29T07:37:12;99500.41;;;-2.30;53.40
41040;BME280;48586;50.122;18.972;2023-01-29T07:39:16;99494.59;;;-2.34;54.06
41040;BME280;48586;50.122;18.972;2023-01-29T07:41:22;99502.34;;;-2.43;54.37
41040;BME280;48586;50.122;18.972;2023-01-29T07:43:27;99500.72;;;-2.44;54.73
41040;BME280;48586;50.122;18.972;2023-01-29T07:45:36;99503.44;;;-2.46;55.09
41040;BME280;48586;50.122;18.972;2023-01-29T07:47:41;99509.84;;;-2.50;56.01
41040;BME280;48586;50.122;18.972;2023-01-29T07:49:46;99507.13;;;-2.48;56.55
41040;BME280;48586;50.122;18.972;2023-01-29T07:51:50;99505.09;;;-2.45;57.34
41040;BME280;48586;50.122;18.972;2023-01-29T07:53:53;99493.84;;;-2.45;57.55
41040;BME280;48586;50.122;18.972;2023-01-29T07:55:58;99497.38;;;-2.46;57.77
41040;BME280;48586;50.122;18.972;2023-01-29T07:58:05;99500.00;;;-2.46;58.48
41040;BME280;48586;50.122;18.972;2023-01-29T08:00:11;99507.59;;;-2.43;58.78
41040;BME280;48586;50.122;18.972;2023-01-29T08:02:18;99507.44;;;-2.42;59.27
41040;BME280;48586;50.122;18.972;2023-01-29T08:04:22;99514.22;;;-2.39;59.59
41040;BME280;48586;50.122;18.972;2023-01-29T08:06:26;99519.06;;;-2.35;59.57
41040;BME280;48586;50.122;18.972;2023-01-29T08:08:32;99526.53;;;-2.41;58.44
41040;BME280;48586;50.122;18.972;2023-01-29T08:10:37;99523.47;;;-2.46;58.97
41040;BME280;48586;50.122;18.972;2023-01-29T08:12:42;99531.88;;;-2.43;59.48
41040;BME280;48586;50.122;18.972;2023-01-29T08:14:50;99533.66;;;-2.43;58.98
41040;BME280;48586;50.122;18.972;2023-01-29T08:16:54;99536.66;;;-2.48;58.94
41040;BME280;48586;50.122;18.972;2023-01-29T08:18:58;99538.53;;;-2.50;59.53
41040;BME280;48586;50.122;18.972;2023-01-29T08:21:04;99536.88;;;-2.51;59.28
41040;BME280;48586;50.122;18.972;2023-01-29T08:23:12;99550.19;;;-2.54;58.73
41040;BME280;48586;50.122;18.972;2023-01-29T08:25:18;99541.66;;;-2.67;58.70
41040;BME280;48586;50.122;18.972;2023-01-29T08:27:23;99540.28;;;-2.71;58.89
41040;BME280;48586;50.122;18.972;2023-01-29T08:29:27;99543.13;;;-2.74;59.25
41040;BME280;48586;50.122;18.972;2023-01-29T08:31:34;99533.50;;;-2.74;59.31
41040;BME280;48586;50.122;18.972;2023-01-29T08:33:38;99540.63;;;-2.76;59.59
41040;BME280;48586;50.122;18.972;2023-01-29T08:35:48;99535.88;;;-2.71;60.29
41040;BME280;48586;50.122;18.972;2023-01-29T08:37:53;99545.81;;;-2.65;60.29
41040;BME280;48586;50.122;18.972;2023-01-29T08:40:00;99539.28;;;-2.59;60.51
41040;BME280;48586;50.122;18.972;2023-01-29T08:42:05;99533.59;;;-2.53;60.46
41040;BME280;48586;50.122;18.972;2023-01-29T08:44:10;99541.41;;;-2.53;59.79
41040;BME280;48586;50.122;18.972;2023-01-29T08:46:16;99543.75;;;-2.50;59.83
41040;BME280;48586;50.122;18.972;2023-01-29T08:48:23;99547.91;;;-2.47;59.68
41040;BME280;48586;50.122;18.972;2023-01-29T08:50:30;99555.16;;;-2.51;59.62
41040;BME280;48586;50.122;18.972;2023-01-29T08:52:35;99550.66;;;-2.49;59.84
41040;BME280;48586;50.122;18.972;2023-01-29T08:54:40;99547.09;;;-2.48;59.58
41040;BME280;48586;50.122;18.972;2023-01-29T08:56:45;99552.53;;;-2.51;59.11
41040;BME280;48586;50.122;18.972;2023-01-29T08:58:50;99554.19;;;-2.50;58.99
41040;BME280;48586;50.122;18.972;2023-01-29T09:00:55;99549.47;;;-2.45;59.02
41040;BME280;48586;50.122;18.972;2023-01-29T09:03:08;99545.06;;;-2.44;58.79
41040;BME280;48586;50.122;18.972;2023-01-29T09:05:17;99539.25;;;-2.48;58.72
41040;BME280;48586;50.122;18.972;2023-01-29T09:07:21;99543.28;;;-2.44;57.89
41040;BME280;48586;50.122;18.972;2023-01-29T09:09:26;99540.31;;;-2.39;57.48
41040;BME280;48586;50.122;18.972;2023-01-29T09:11:31;99542.41;;;-2.33;57.40
41040;BME280;48586;50.122;18.972;2023-01-29T09:13:36;99548.13;;;-2.39;57.52
41040;BME280;48586;50.122;18.972;2023-01-29T09:15:40;99537.63;;;-2.49;56.63
41040;BME280;48586;50.122;18.972;2023-01-29T09:17:45;99534.63;;;-2.44;56.82
41040;BME280;48586;50.122;18.972;2023-01-29T09:19:50;99530.94;;;-2.42;56.99
41040;BME280;48586;50.122;18.972;2023-01-29T09:21:58;99526.28;;;-2.38;56.85
41040;BME280;48586;50.122;18.972;2023-01-29T09:24:04;99512.66;;;-2.42;56.42
41040;BME280;48586;50.122;18.972;2023-01-29T09:26:09;99514.44;;;-2.42;56.45
41040;BME280;48586;50.122;18.972;2023-01-29T09:28:13;99513.63;;;-2.43;56.80
41040;BME280;48586;50.122;18.972;2023-01-29T09:30:19;99510.63;;;-2.38;57.50
41040;BME280;48586;50.122;18.972;2023-01-29T09:32:23;99513.31;;;-2.28;57.77
41040;BME280;48586;50.122;18.972;2023-01-29T09:34:31;99514.09;;;-2.17;57.89
41040;BME280;48586;50.122;18.972;2023-01-29T09:36:36;99525.78;;;-2.00;57.52
41040;BME280;48586;50.122;18.972;2023-01-29T09:38:43;99518.72;;;-1.88;57.19
41040;BME280;48586;50.122;18.972;2023-01-29T09:40:59;99520.38;;;-1.66;56.66
41040;BME280;48586;50.122;18.972;2023-01-29T09:43:15;99514.75;;;-1.62;55.60
41040;BME280;48586;50.122;18.972;2023-01-29T09:45:24;99513.41;;;-1.56;55.44
41040;BME280;48586;50.122;18.972;2023-01-29T09:47:34;99523.63;;;-1.43;54.17
41040;BME280;48586;50.122;18.972;2023-01-29T09:49:45;99523.69;;;-1.34;54.13
41040;BME280;48586;50.122;18.972;2023-01-29T09:51:59;99519.81;;;-1.39;53.62
41040;BME280;48586;50.122;18.972;2023-01-29T09:54:18;99519.16;;;-1.32;54.11
41040;BME280;48586;50.122;18.972;2023-01-29T09:56:28;99515.16;;;-1.36;53.04
41040;BME280;48586;50.122;18.972;2023-01-29T09:58:34;99507.38;;;-1.47;52.78
41040;BME280;48586;50.122;18.972;2023-01-29T10:00:50;99502.69;;;-1.53;53.53
41040;BME280;48586;50.122;18.972;2023-01-29T10:03:20;99490.66;;;-1.65;53.33
41040;BME280;48586;50.122;18.972;2023-01-29T10:05:52;99493.53;;;-1.68;53.25
41040;BME280;48586;50.122;18.972;2023-01-29T10:08:34;99498.03;;;-1.80;53.48
41040;BME280;48586;50.122;18.972;2023-01-29T10:11:25;99489.03;;;-1.87;53.69
41040;BME280;48586;50.122;18.972;2023-01-29T10:13:49;99476.13;;;-1.89;54.63
41040;BME280;48586;50.122;18.972;2023-01-29T10:16:17;99462.72;;;-1.95;55.21
41040;BME280;48586;50.122;18.972;2023-01-29T10:19:11;99453.50;;;-1.99;55.64
41040;BME280;48586;50.122;18.972;2023-01-29T10:21:49;99466.34;;;-2.08;55.57
41040;BME280;48586;50.122;18.972;2023-01-29T10:24:19;99465.72;;;-2.21;55.46
41040;BME280;48586;50.122;18.972;2023-01-29T10:26:38;99455.63;;;-2.14;55.94
41040;BME280;48586;50.122;18.972;2023-01-29T10:28:48;99462.25;;;-2.10;53.93
41040;BME280;48586;50.122;18.972;2023-01-29T10:31:00;99456.50;;;-2.04;53.07
41040;BME280;48586;50.122;18.972;2023-01-29T10:33:17;99437.53;;;-2.06;52.55
41040;BME280;48586;50.122;18.972;2023-01-29T10:35:31;99430.81;;;-1.99;53.10
41040;BME280;48586;50.122;18.972;2023-01-29T10:37:41;99419.75;;;-1.91;53.73
41040;BME280;48586;50.122;18.972;2023-01-29T10:39:50;99417.59;;;-1.76;53.99
41040;BME280;48586;50.122;18.972;2023-01-29T10:42:16;99409.75;;;-1.76;52.41
41040;BME280;48586;50.122;18.972;2023-01-29T10:44:40;99411.72;;;-1.69;52.42
41040;BME280;48586;50.122;18.972;2023-01-29T10:47:11;99402.56;;;-1.63;52.22
41040;BME280;48586;50.122;18.972;2023-01-29T10:49:41;99402.09;;;-1.68;52.55
41040;BME280;48586;50.122;18.972;2023-01-29T10:52:21;99393.44;;;-1.69;53.27
41040;BME280;48586;50.122;18.972;2023-01-29T10:54:52;99388.34;;;-1.70;52.96
41040;BME280;48586;50.122;18.972;2023-01-29T10:57:20;99389.34;;;-1.62;52.46
41040;BME280;48586;50.122;18.972;2023-01-29T10:59:52;99387.13;;;-1.66;52.86
41040;BME280;48586;50.122;18.972;2023-01-29T11:02:14;99378.59;;;-1.68;52.96
41040;BME280;48586;50.122;18.972;2023-01-29T11:04:22;99379.88;;;-1.63;53.42
41040;BME280;48586;50.122;18.972;2023-01-29T11:06:31;99377.19;;;-1.72;52.29
41040;BME280;48586;50.122;18.972;2023-01-29T11:08:42;99368.09;;;-1.88;52.47
41040;BME280;48586;50.122;18.972;2023-01-29T11:11:05;99362.16;;;-1.90;52.13
41040;BME280;48586;50.122;18.972;2023-01-29T11:13:15;99366.16;;;-1.86;51.54
41040;BME280;48586;50.122;18.972;2023-01-29T11:15:26;99355.69;;;-1.86;52.04
41040;BME280;48586;50.122;18.972;2023-01-29T11:17:35;99352.91;;;-1.94;52.24
41040;BME280;48586;50.122;18.972;2023-01-29T11:19:43;99352.50;;;-1.99;52.41
41040;BME280;48586;50.122;18.972;2023-01-29T11:21:52;99348.09;;;-1.98;52.95
41040;BME280;48586;50.122;18.972;2023-01-29T11:24:06;99344.19;;;-1.83;53.08
41040;BME280;48586;50.122;18.972;2023-01-29T11:26:20;99332.78;;;-1.82;52.15
41040;BME280;48586;50.122;18.972;2023-01-29T11:28:42;99337.72;;;-1.79;52.42
41040;BME280;48586;50.122;18.972;2023-01-29T11:30:49;99335.69;;;-1.75;50.90